sensor_id;sensor_type;location;lat;lon;timestamp;pressure;altitude;pressure_sealevel;temperature;humidity
80323;BME280;69636;52.372;13.610;2023-07-31T00:01:02;100896.63;;;15.10;91.53
80323;BME280;69636;52.372;13.610;2023-07-31T00:03:30;100899.56;;;15.00;91.61
80323;BME280;69636;52.372;13.610;2023-07-31T00:05:57;100894.41;;;14.99;91.02
80323;BME280;69636;52.372;13.610;2023-07-31T00:08:24;100891.84;;;15.05;90.66
80323;BME280;69636;52.372;13.610;2023-07-31T00:10:53;100887.50;;;15.04;90.87
80323;BME280;69636;52.372;13.610;2023-07-31T00:13:20;100889.06;;;14.99;91.28
80323;BME280;69636;52.372;13.610;2023-07-31T00:15:49;100890.19;;;15.04;90.29
80323;BME280;69636;52.372;13.610;2023-07-31T00:18:16;100887.09;;;14.92;90.81
80323;BME280;69636;52.372;13.610;2023-07-31T00:20:43;100890.81;;;14.83;91.65
80323;BME280;69636;52.372;13.610;2023-07-31T00:23:11;100885.84;;;14.80;91.33
80323;BME280;69636;52.372;13.610;2023-07-31T00:25:38;100881.63;;;14.86;91.42
80323;BME280;69636;52.372;13.610;2023-07-31T00:28:11;100876.75;;;14.89;90.83
80323;BME280;69636;52.372;13.610;2023-07-31T00:30:41;100877.84;;;14.80;90.92
80323;BME280;69636;52.372;13.610;2023-07-31T00:33:08;100874.69;;;14.77;90.91
80323;BME280;69636;52.372;13.610;2023-07-31T00:35:35;100861.50;;;14.75;90.66
80323;BME280;69636;52.372;13.610;2023-07-31T00:38:02;100856.81;;;14.77;90.94
80323;BME280;69636;52.372;13.610;2023-07-31T00:40:34;100849.28;;;14.81;90.67
80323;BME280;69636;52.372;13.610;2023-07-31T00:43:01;100847.59;;;14.80;91.31
80323;BME280;69636;52.372;13.610;2023-07-31T00:45:31;100837.94;;;14.79;90.56
80323;BME280;69636;52.372;13.610;2023-07-31T00:47:59;100828.69;;;14.81;89.98
80323;BME280;69636;52.372;13.610;2023-07-31T00:50:27;100828.34;;;14.84;90.21
80323;BME280;69636;52.372;13.610;2023-07-31T00:52:55;100831.19;;;14.83;90.22
80323;BME280;69636;52.372;13.610;2023-07-31T00:55:25;100826.31;;;14.86;90.19
80323;BME280;69636;52.372;13.610;2023-07-31T00:57:54;100832.09;;;14.75;90.52
80323;BME280;69636;52.372;13.610;2023-07-31T01:00:22;100826.75;;;14.75;90.71
80323;BME280;69636;52.372;13.610;2023-07-31T01:02:51;100825.56;;;14.78;90.83
80323;BME280;69636;52.372;13.610;2023-07-31T01:05:22;100835.25;;;14.79;90.34
80323;BME280;69636;52.372;13.610;2023-07-31T01:07:57;100834.03;;;14.81;90.01
80323;BME280;69636;52.372;13.610;2023-07-31T01:10:34;100841.31;;;14.73;91.17
80323;BME280;69636;52.372;13.610;2023-07-31T01:13:05;100839.75;;;14.78;91.64
80323;BME280;69636;52.372;13.610;2023-07-31T01:15:33;100829.53;;;14.82;92.28
80323;BME280;69636;52.372;13.610;2023-07-31T01:18:01;100826.19;;;15.03;90.53
80323;BME280;69636;52.372;13.610;2023-07-31T01:20:30;100815.16;;;15.06;90.39
80323;BME280;69636;52.372;13.610;2023-07-31T01:23:13;100809.50;;;15.01;90.32
80323;BME280;69636;52.372;13.610;2023-07-31T01:26:00;100810.06;;;15.11;90.16
80323;BME280;69636;52.372;13.610;2023-07-31T01:28:34;100800.84;;;15.13;89.97
80323;BME280;69636;52.372;13.610;2023-07-31T01:31:07;100803.22;;;15.08;90.17
80323;BME280;69636;52.372;13.610;2023-07-31T01:33:37;100802.50;;;15.14;90.25
80323;BME280;69636;52.372;13.610;2023-07-31T01:36:05;100797.19;;;15.29;90.07
80323;BME280;69636;52.372;13.610;2023-07-31T01:38:32;100796.75;;;15.25;89.32
80323;BME280;69636;52.372;13.610;2023-07-31T01:41:01;100795.31;;;15.15;90.47
80323;BME280;69636;52.372;13.610;2023-07-31T01:43:28;100803.97;;;15.02;89.89
80323;BME280;69636;52.372;13.610;2023-07-31T01:45:56;100805.34;;;14.98;90.77
80323;BME280;69636;52.372;13.610;2023-07-31T01:48:23;100805.88;;;14.93;90.59
80323;BME280;69636;52.372;13.610;2023-07-31T01:50:50;100798.53;;;14.96;90.37
80323;BME280;69636;52.372;13.610;2023-07-31T01:53:18;100799.81;;;15.00;89.72
80323;BME280;69636;52.372;13.610;2023-07-31T01:55:45;100796.31;;;14.99;89.68
80323;BME280;69636;52.372;13.610;2023-07-31T01:58:13;100792.34;;;15.10;90.07
80323;BME280;69636;52.372;13.610;2023-07-31T02:00:41;100783.97;;;15.13;89.52
80323;BME280;69636;52.372;13.610;2023-07-31T02:03:08;100778.66;;;15.27;88.94
80323;BME280;69636;52.372;13.610;2023-07-31T02:05:35;100779.22;;;15.23;88.65
80323;BME280;69636;52.372;13.610;2023-07-31T02:08:03;100780.66;;;15.11;89.51
80323;BME280;69636;52.372;13.610;2023-07-31T02:10:32;100771.97;;;15.09;89.86
80323;BME280;69636;52.372;13.610;2023-07-31T02:13:00;100777.72;;;15.06;90.01
80323;BME280;69636;52.372;13.610;2023-07-31T02:15:29;100778.91;;;15.03;90.45
80323;BME280;69636;52.372;13.610;2023-07-31T02:17:57;100775.41;;;15.03;90.92
80323;BME280;69636;52.372;13.610;2023-07-31T02:20:24;100779.91;;;15.02;91.15
80323;BME280;69636;52.372;13.610;2023-07-31T02:22:51;100772.44;;;15.12;90.45
80323;BME280;69636;52.372;13.610;2023-07-31T02:25:19;100773.66;;;15.10;91.33
80323;BME280;69636;52.372;13.610;2023-07-31T02:27:46;100768.69;;;15.21;90.08
80323;BME280;69636;52.372;13.610;2023-07-31T02:30:13;100767.56;;;15.16;90.33
80323;BME280;69636;52.372;13.610;2023-07-31T02:32:42;100766.63;;;15.09;90.68
80323;BME280;69636;52.372;13.610;2023-07-31T02:35:09;100763.78;;;15.10;90.45
80323;BME280;69636;52.372;13.610;2023-07-31T02:37:37;100751.81;;;15.06;91.12
80323;BME280;69636;52.372;13.610;2023-07-31T02:40:05;100759.25;;;15.11;91.12
80323;BME280;69636;52.372;13.610;2023-07-31T02:42:32;100748.66;;;15.03;92.02
80323;BME280;69636;52.372;13.610;2023-07-31T02:44:59;100745.91;;;15.11;91.62
80323;BME280;69636;52.372;13.610;2023-07-31T02:47:27;100757.59;;;15.10;91.57
80323;BME280;69636;52.372;13.610;2023-07-31T02:49:55;100766.00;;;15.07;92.66
80323;BME280;69636;52.372;13.610;2023-07-31T02:52:23;100756.34;;;15.06;92.35
80323;BME280;69636;52.372;13.610;2023-07-31T02:54:50;100755.50;;;15.05;92.00
80323;BME280;69636;52.372;13.610;2023-07-31T02:57:17;100758.19;;;15.05;92.42
80323;BME280;69636;52.372;13.610;2023-07-31T02:59:44;100757.69;;;15.02;93.05
80323;BME280;69636;52.372;13.610;2023-07-31T03:02:11;100761.69;;;15.06;93.70
80323;BME280;69636;52.372;13.610;2023-07-31T03:04:39;100755.38;;;14.99;93.52
80323;BME280;69636;52.372;13.610;2023-07-31T03:07:08;100749.31;;;15.05;93.68
80323;BME280;69636;52.372;13.610;2023-07-31T03:09:35;100756.69;;;15.03;94.15
80323;BME280;69636;52.372;13.610;2023-07-31T03:12:03;100753.63;;;14.91;94.68
80323;BME280;69636;52.372;13.610;2023-07-31T03:14:30;100748.44;;;14.89;96.18
80323;BME280;69636;52.372;13.610;2023-07-31T03:16:57;100755.81;;;14.87;96.39
80323;BME280;69636;52.372;13.610;2023-07-31T03:19:24;100755.81;;;14.87;96.63
80323;BME280;69636;52.372;13.610;2023-07-31T03:21:52;100754.50;;;14.83;96.90
80323;BME280;69636;52.372;13.610;2023-07-31T03:24:20;100749.81;;;14.85;97.11
80323;BME280;69636;52.372;13.610;2023-07-31T03:26:48;100753.25;;;14.79;97.34
80323;BME280;69636;52.372;13.610;2023-07-31T03:29:15;100750.28;;;14.74;98.02
80323;BME280;69636;52.372;13.610;2023-07-31T03:31:42;100747.59;;;14.74;97.46
80323;BME280;69636;52.372;13.610;2023-07-31T03:34:10;100745.22;;;14.79;97.00
80323;BME280;69636;52.372;13.610;2023-07-31T03:36:37;100747.41;;;14.76;97.59
80323;BME280;69636;52.372;13.610;2023-07-31T03:39:05;100750.09;;;14.76;97.76
80323;BME280;69636;52.372;13.610;2023-07-31T03:41:33;100737.25;;;14.71;98.09
80323;BME280;69636;52.372;13.610;2023-07-31T03:44:01;100738.09;;;14.72;98.12
80323;BME280;69636;52.372;13.610;2023-07-31T03:46:28;100741.31;;;14.67;98.46
80323;BME280;69636;52.372;13.610;2023-07-31T03:48:55;100745.00;;;14.66;98.93
80323;BME280;69636;52.372;13.610;2023-07-31T03:51:22;100743.97;;;14.67;99.22
80323;BME280;69636;52.372;13.610;2023-07-31T03:53:50;100743.78;;;14.69;99.63
80323;BME280;69636;52.372;13.610;2023-07-31T03:56:17;100745.28;;;14.71;99.08
80323;BME280;69636;52.372;13.610;2023-07-31T03:58:46;100743.56;;;14.78;98.29
80323;BME280;69636;52.372;13.610;2023-07-31T04:01:13;100732.03;;;14.78;98.32
80323;BME280;69636;52.372;13.610;2023-07-31T04:03:40;100738.03;;;14.80;97.78
80323;BME280;69636;52.372;13.610;2023-07-31T04:06:08;100728.78;;;14.82;97.69
80323;BME280;69636;52.372;13.610;2023-07-31T04:08:35;100734.06;;;14.76;97.39
80323;BME280;69636;52.372;13.610;2023-07-31T04:11:02;100727.13;;;14.81;97.42
80323;BME280;69636;52.372;13.610;2023-07-31T04:13:30;100726.03;;;14.76;98.27
80323;BME280;69636;52.372;13.610;2023-07-31T04:15:58;100723.38;;;14.76;98.27
80323;BME280;69636;52.372;13.610;2023-07-31T04:18:26;100722.63;;;14.82;97.92
80323;BME280;69636;52.372;13.610;2023-07-31T04:20:53;100723.44;;;14.82;98.23
80323;BME280;69636;52.372;13.610;2023-07-31T04:23:20;100722.63;;;14.82;98.05
80323;BME280;69636;52.372;13.610;2023-07-31T04:25:47;100716.66;;;14.80;98.17
80323;BME280;69636;52.372;13.610;2023-07-31T04:28:15;100711.94;;;14.82;98.69
80323;BME280;69636;52.372;13.610;2023-07-31T04:30:42;100710.75;;;14.84;97.66
80323;BME280;69636;52.372;13.610;2023-07-31T04:33:11;100715.25;;;14.84;98.84
80323;BME280;69636;52.372;13.610;2023-07-31T04:35:38;100707.63;;;14.96;97.28
80323;BME280;69636;52.372;13.610;2023-07-31T04:38:05;100716.56;;;14.88;97.58
80323;BME280;69636;52.372;13.610;2023-07-31T04:40:33;100710.13;;;14.97;97.15
80323;BME280;69636;52.372;13.610;2023-07-31T04:43:00;100693.97;;;14.90;98.20
80323;BME280;69636;52.372;13.610;2023-07-31T04:45:27;100701.00;;;14.91;98.23
80323;BME280;69636;52.372;13.610;2023-07-31T04:47:55;100699.44;;;14.97;98.42
80323;BME280;69636;52.372;13.610;2023-07-31T04:50:23;100698.50;;;14.90;98.16
80323;BME280;69636;52.372;13.610;2023-07-31T04:52:50;100694.72;;;14.99;97.34
80323;BME280;69636;52.372;13.610;2023-07-31T04:55:18;100700.72;;;15.01;97.59
80323;BME280;69636;52.372;13.610;2023-07-31T04:57:45;100693.53;;;15.02;97.40
80323;BME280;69636;52.372;13.610;2023-07-31T05:00:13;100693.44;;;15.10;96.90
80323;BME280;69636;52.372;13.610;2023-07-31T05:02:40;100693.34;;;15.18;95.96
80323;BME280;69636;52.372;13.610;2023-07-31T05:05:08;100686.72;;;15.14;96.59
80323;BME280;69636;52.372;13.610;2023-07-31T05:07:36;100688.66;;;15.05;97.13
80323;BME280;69636;52.372;13.610;2023-07-31T05:10:05;100693.91;;;15.13;97.67
80323;BME280;69636;52.372;13.610;2023-07-31T05:12:32;100688.28;;;15.23;96.16
80323;BME280;69636;52.372;13.610;2023-07-31T05:14:59;100693.06;;;15.13;96.69
80323;BME280;69636;52.372;13.610;2023-07-31T05:17:26;100691.16;;;15.07;97.75
80323;BME280;69636;52.372;13.610;2023-07-31T05:19:54;100696.38;;;15.15;97.00
80323;BME280;69636;52.372;13.610;2023-07-31T05:22:23;100690.31;;;15.21;96.64
80323;BME280;69636;52.372;13.610;2023-07-31T05:24:53;100693.63;;;15.23;96.97
80323;BME280;69636;52.372;13.610;2023-07-31T05:27:20;100691.59;;;15.25;97.61
80323;BME280;69636;52.372;13.610;2023-07-31T05:29:47;100687.44;;;15.22;98.14
80323;BME280;69636;52.372;13.610;2023-07-31T05:32:15;100684.59;;;15.24;98.15
80323;BME280;69636;52.372;13.610;2023-07-31T05:34:42;100692.34;;;15.19;97.62
80323;BME280;69636;52.372;13.610;2023-07-31T05:37:10;100687.91;;;15.26;97.31
80323;BME280;69636;52.372;13.610;2023-07-31T05:39:37;100680.00;;;15.33;96.62
80323;BME280;69636;52.372;13.610;2023-07-31T05:42:06;100677.84;;;15.43;96.68
80323;BME280;69636;52.372;13.610;2023-07-31T05:44:34;100688.81;;;15.33;96.76
80323;BME280;69636;52.372;13.610;2023-07-31T05:47:01;100685.53;;;15.31;96.65
80323;BME280;69636;52.372;13.610;2023-07-31T05:49:29;100680.59;;;15.35;96.98
80323;BME280;69636;52.372;13.610;2023-07-31T05:51:56;100682.25;;;15.36;96.84
80323;BME280;69636;52.372;13.610;2023-07-31T05:54:23;100683.00;;;15.44;96.48
80323;BME280;69636;52.372;13.610;2023-07-31T05:56:50;100679.03;;;15.40;96.07
80323;BME280;69636;52.372;13.610;2023-07-31T05:59:19;100677.56;;;15.52;96.30
80323;BME280;69636;52.372;13.610;2023-07-31T06:01:46;100676.00;;;15.58;96.59
80323;BME280;69636;52.372;13.610;2023-07-31T06:04:14;100685.06;;;15.57;97.78
80323;BME280;69636;52.372;13.610;2023-07-31T06:06:41;100678.03;;;15.41;96.40
80323;BME280;69636;52.372;13.610;2023-07-31T06:09:08;100688.06;;;15.54;97.78
80323;BME280;69636;52.372;13.610;2023-07-31T06:11:36;100680.59;;;15.64;96.19
80323;BME280;69636;52.372;13.610;2023-07-31T06:14:03;100671.38;;;15.52;96.79
80323;BME280;69636;52.372;13.610;2023-07-31T06:16:32;100672.50;;;15.57;97.47
80323;BME280;69636;52.372;13.610;2023-07-31T06:19:00;100674.78;;;15.60;96.97
80323;BME280;69636;52.372;13.610;2023-07-31T06:21:29;100674.50;;;15.70;97.29
80323;BME280;69636;52.372;13.610;2023-07-31T06:23:56;100674.41;;;15.64;97.34
80323;BME280;69636;52.372;13.610;2023-07-31T06:26:23;100668.69;;;15.67;97.31
80323;BME280;69636;52.372;13.610;2023-07-31T06:28:51;100670.72;;;15.65;96.63
80323;BME280;69636;52.372;13.610;2023-07-31T06:31:18;100663.69;;;15.64;97.90
80323;BME280;69636;52.372;13.610;2023-07-31T06:33:47;100671.72;;;15.78;96.52
80323;BME280;69636;52.372;13.610;2023-07-31T06:36:14;100670.97;;;15.84;96.41
80323;BME280;69636;52.372;13.610;2023-07-31T06:38:43;100667.28;;;15.71;96.84
80323;BME280;69636;52.372;13.610;2023-07-31T06:41:10;100665.63;;;15.70;97.19
80323;BME280;69636;52.372;13.610;2023-07-31T06:43:38;100664.16;;;15.67;97.09
80323;BME280;69636;52.372;13.610;2023-07-31T06:46:05;100664.69;;;15.77;96.32
80323;BME280;69636;52.372;13.610;2023-07-31T06:48:33;100670.25;;;15.76;96.26
80323;BME280;69636;52.372;13.610;2023-07-31T06:51:02;100669.50;;;15.82;96.36
80323;BME280;69636;52.372;13.610;2023-07-31T06:53:30;100669.31;;;15.83;96.38
80323;BME280;69636;52.372;13.610;2023-07-31T06:55:57;100669.59;;;15.74;96.63
80323;BME280;69636;52.372;13.610;2023-07-31T06:58:25;100662.34;;;15.89;95.02
80323;BME280;69636;52.372;13.610;2023-07-31T07:00:53;100666.81;;;15.82;94.92
80323;BME280;69636;52.372;13.610;2023-07-31T07:03:20;100675.09;;;15.87;95.00
80323;BME280;69636;52.372;13.610;2023-07-31T07:05:48;100665.38;;;15.86;96.14
80323;BME280;69636;52.372;13.610;2023-07-31T07:08:17;100662.59;;;15.73;95.92
80323;BME280;69636;52.372;13.610;2023-07-31T07:10:44;100663.41;;;15.73;96.17
80323;BME280;69636;52.372;13.610;2023-07-31T07:13:14;100665.53;;;15.78;96.83
80323;BME280;69636;52.372;13.610;2023-07-31T07:15:41;100664.56;;;15.85;96.70
80323;BME280;69636;52.372;13.610;2023-07-31T07:18:08;100670.38;;;15.89;96.27
80323;BME280;69636;52.372;13.610;2023-07-31T07:20:36;100662.47;;;15.81;96.13
80323;BME280;69636;52.372;13.610;2023-07-31T07:23:03;100660.69;;;15.88;96.03
80323;BME280;69636;52.372;13.610;2023-07-31T07:25:37;100663.50;;;16.01;94.54
80323;BME280;69636;52.372;13.610;2023-07-31T07:28:05;100672.66;;;15.92;95.35
80323;BME280;69636;52.372;13.610;2023-07-31T07:30:32;100657.75;;;15.83;97.28
80323;BME280;69636;52.372;13.610;2023-07-31T07:32:59;100664.50;;;15.79;97.39
80323;BME280;69636;52.372;13.610;2023-07-31T07:35:27;100662.72;;;15.86;97.52
80323;BME280;69636;52.372;13.610;2023-07-31T07:37:54;100663.25;;;15.96;96.70
80323;BME280;69636;52.372;13.610;2023-07-31T07:40:21;100660.69;;;15.88;96.53
80323;BME280;69636;52.372;13.610;2023-07-31T07:42:51;100659.16;;;15.79;95.56
80323;BME280;69636;52.372;13.610;2023-07-31T07:45:18;100653.66;;;15.87;96.96
80323;BME280;69636;52.372;13.610;2023-07-31T07:47:47;100659.09;;;15.93;96.16
80323;BME280;69636;52.372;13.610;2023-07-31T07:50:14;100651.88;;;15.94;96.34
80323;BME280;69636;52.372;13.610;2023-07-31T07:52:41;100646.47;;;15.87;96.15
80323;BME280;69636;52.372;13.610;2023-07-31T07:55:09;100649.34;;;16.07;96.16
80323;BME280;69636;52.372;13.610;2023-07-31T07:57:37;100642.78;;;16.10;95.03
80323;BME280;69636;52.372;13.610;2023-07-31T08:00:07;100652.69;;;16.09;96.49
80323;BME280;69636;52.372;13.610;2023-07-31T08:02:35;100640.91;;;16.32;94.99
80323;BME280;69636;52.372;13.610;2023-07-31T08:05:02;100642.03;;;16.44;94.57
80323;BME280;69636;52.372;13.610;2023-07-31T08:07:29;100636.94;;;16.49;93.95
80323;BME280;69636;52.372;13.610;2023-07-31T08:09:58;100639.34;;;16.44;95.14
80323;BME280;69636;52.372;13.610;2023-07-31T08:12:25;100644.72;;;16.44;95.98
80323;BME280;69636;52.372;13.610;2023-07-31T08:14:53;100641.31;;;16.28;96.59
80323;BME280;69636;52.372;13.610;2023-07-31T08:17:22;100644.75;;;16.22;96.31
80323;BME280;69636;52.372;13.610;2023-07-31T08:19:51;100642.13;;;16.29;96.88
80323;BME280;69636;52.372;13.610;2023-07-31T08:22:18;100637.66;;;16.36;96.95
80323;BME280;69636;52.372;13.610;2023-07-31T08:24:47;100638.94;;;16.19;97.13
80323;BME280;69636;52.372;13.610;2023-07-31T08:27:14;100632.13;;;16.16;97.70
80323;BME280;69636;52.372;13.610;2023-07-31T08:29:41;100635.06;;;16.21;97.63
80323;BME280;69636;52.372;13.610;2023-07-31T08:32:09;100636.53;;;16.24;98.41
80323;BME280;69636;52.372;13.610;2023-07-31T08:34:37;100632.25;;;16.29;97.58
80323;BME280;69636;52.372;13.610;2023-07-31T08:37:05;100625.22;;;16.28;97.69
80323;BME280;69636;52.372;13.610;2023-07-31T08:39:33;100633.28;;;16.28;97.62
80323;BME280;69636;52.372;13.610;2023-07-31T08:42:01;100634.00;;;16.44;98.12
80323;BME280;69636;52.372;13.610;2023-07-31T08:44:30;100630.41;;;16.58;97.20
80323;BME280;69636;52.372;13.610;2023-07-31T08:46:57;100628.19;;;16.61;97.02
80323;BME280;69636;52.372;13.610;2023-07-31T08:49:25;100620.06;;;16.55;95.90
80323;BME280;69636;52.372;13.610;2023-07-31T08:51:56;100623.25;;;16.65;96.85
80323;BME280;69636;52.372;13.610;2023-07-31T08:54:23;100617.75;;;16.73;95.62
80323;BME280;69636;52.372;13.610;2023-07-31T08:56:51;100624.81;;;16.81;96.23
80323;BME280;69636;52.372;13.610;2023-07-31T08:59:21;100620.69;;;16.78;96.10
80323;BME280;69636;52.372;13.610;2023-07-31T09:01:50;100624.06;;;16.93;94.91
80323;BME280;69636;52.372;13.610;2023-07-31T09:04:21;100624.53;;;17.04;95.70
80323;BME280;69636;52.372;13.610;2023-07-31T09:06:52;100628.88;;;17.05;95.15
80323;BME280;69636;52.372;13.610;2023-07-31T09:09:27;100623.25;;;17.00;94.01
80323;BME280;69636;52.372;13.610;2023-07-31T09:11:55;100626.28;;;16.90;94.98
80323;BME280;69636;52.372;13.610;2023-07-31T09:14:24;100625.75;;;17.01;94.51
80323;BME280;69636;52.372;13.610;2023-07-31T09:16:53;100622.97;;;17.22;93.55
80323;BME280;69636;52.372;13.610;2023-07-31T09:19:28;100632.91;;;17.28;91.79
80323;BME280;69636;52.372;13.610;2023-07-31T09:21:56;100631.50;;;17.39;91.81
80323;BME280;69636;52.372;13.610;2023-07-31T09:24:28;100629.97;;;17.65;91.39
80323;BME280;69636;52.372;13.610;2023-07-31T09:26:57;100635.16;;;17.66;90.49
80323;BME280;69636;52.372;13.610;2023-07-31T09:29:25;100629.50;;;17.54;89.56
80323;BME280;69636;52.372;13.610;2023-07-31T09:31:53;100633.63;;;17.57;87.62
80323;BME280;69636;52.372;13.610;2023-07-31T09:34:28;100637.91;;;17.38;88.14
80323;BME280;69636;52.372;13.610;2023-07-31T09:36:58;100636.69;;;17.47;88.05
80323;BME280;69636;52.372;13.610;2023-07-31T09:39:29;100624.31;;;17.53;87.83
80323;BME280;69636;52.372;13.610;2023-07-31T09:41:57;100629.25;;;17.49;87.14
80323;BME280;69636;52.372;13.610;2023-07-31T09:44:39;100629.22;;;17.36;87.60
80323;BME280;69636;52.372;13.610;2023-07-31T09:47:21;100624.84;;;17.28;88.63
80323;BME280;69636;52.372;13.610;2023-07-31T09:49:48;100620.91;;;17.24;89.18
80323;BME280;69636;52.372;13.610;2023-07-31T09:52:16;100623.16;;;17.21;89.24
80323;BME280;69636;52.372;13.610;2023-07-31T09:54:44;100623.34;;;17.13;89.54
80323;BME280;69636;52.372;13.610;2023-07-31T09:57:11;100615.91;;;17.08;89.46
80323;BME280;69636;52.372;13.610;2023-07-31T09:59:40;100609.50;;;17.16;90.15
80323;BME280;69636;52.372;13.610;2023-07-31T10:02:08;100612.72;;;17.39;90.45
80323;BME280;69636;52.372;13.610;2023-07-31T10:04:43;100611.28;;;17.50;89.77
80323;BME280;69636;52.372;13.610;2023-07-31T10:07:17;100604.31;;;17.62;89.30
80323;BME280;69636;52.372;13.610;2023-07-31T10:09:46;100601.00;;;17.60;89.18
80323;BME280;69636;52.372;13.610;2023-07-31T10:12:15;100604.16;;;17.70;89.26
80323;BME280;69636;52.372;13.610;2023-07-31T10:14:43;100595.50;;;17.75;89.21
80323;BME280;69636;52.372;13.610;2023-07-31T10:17:12;100594.28;;;17.84;89.39
80323;BME280;69636;52.372;13.610;2023-07-31T10:19:41;100591.59;;;17.84;89.08
80323;BME280;69636;52.372;13.610;2023-07-31T10:22:09;100599.63;;;17.77;89.52
80323;BME280;69636;52.372;13.610;2023-07-31T10:24:41;100594.25;;;17.71;91.80
80323;BME280;69636;52.372;13.610;2023-07-31T10:27:11;100591.34;;;17.72;92.23
80323;BME280;69636;52.372;13.610;2023-07-31T10:29:39;100586.81;;;17.73;92.06
80323;BME280;69636;52.372;13.610;2023-07-31T10:32:09;100588.63;;;17.59;92.48
80323;BME280;69636;52.372;13.610;2023-07-31T10:34:39;100587.59;;;17.60;93.41
80323;BME280;69636;52.372;13.610;2023-07-31T10:37:20;100592.31;;;17.51;93.96
80323;BME280;69636;52.372;13.610;2023-07-31T10:39:56;100582.41;;;17.52;94.52
80323;BME280;69636;52.372;13.610;2023-07-31T10:42:29;100583.06;;;17.60;94.89
80323;BME280;69636;52.372;13.610;2023-07-31T10:44:58;100591.16;;;17.80;94.48
80323;BME280;69636;52.372;13.610;2023-07-31T10:47:26;100581.88;;;18.03;93.58
80323;BME280;69636;52.372;13.610;2023-07-31T10:50:10;100579.63;;;18.33;93.47
80323;BME280;69636;52.372;13.610;2023-07-31T10:52:39;100574.38;;;18.84;91.97
80323;BME280;69636;52.372;13.610;2023-07-31T10:55:24;100567.09;;;20.05;87.73
80323;BME280;69636;52.372;13.610;2023-07-31T10:57:54;100559.47;;;20.70;83.78
80323;BME280;69636;52.372;13.610;2023-07-31T11:00:24;100547.09;;;20.99;80.31
80323;BME280;69636;52.372;13.610;2023-07-31T11:02:59;100544.81;;;21.14;79.67
80323;BME280;69636;52.372;13.610;2023-07-31T11:05:50;100557.47;;;21.32;78.13
80323;BME280;69636;52.372;13.610;2023-07-31T11:08:20;100544.59;;;21.87;76.79
80323;BME280;69636;52.372;13.610;2023-07-31T11:10:49;100543.00;;;22.80;73.91
80323;BME280;69636;52.372;13.610;2023-07-31T11:13:18;100533.63;;;23.11;73.43
80323;BME280;69636;52.372;13.610;2023-07-31T11:15:46;100539.78;;;22.94;69.96
80323;BME280;69636;52.372;13.610;2023-07-31T11:18:13;100533.50;;;22.54;69.50
80323;BME280;69636;52.372;13.610;2023-07-31T11:20:42;100534.56;;;22.18;70.81
80323;BME280;69636;52.372;13.610;2023-07-31T11:23:10;100536.16;;;21.95;70.27
80323;BME280;69636;52.372;13.610;2023-07-31T11:25:39;100538.09;;;22.07;70.06
80323;BME280;69636;52.372;13.610;2023-07-31T11:28:10;100526.28;;;22.71;66.33
80323;BME280;69636;52.372;13.610;2023-07-31T11:30:40;100531.16;;;22.34;64.36
80323;BME280;69636;52.372;13.610;2023-07-31T11:33:09;100533.00;;;21.45;67.77
80323;BME280;69636;52.372;13.610;2023-07-31T11:35:43;100527.94;;;21.19;67.41
80323;BME280;69636;52.372;13.610;2023-07-31T11:38:11;100528.38;;;21.16;69.37
80323;BME280;69636;52.372;13.610;2023-07-31T11:40:41;100523.84;;;21.46;67.81
80323;BME280;69636;52.372;13.610;2023-07-31T11:43:09;100513.19;;;21.51;69.05
80323;BME280;69636;52.372;13.610;2023-07-31T11:45:36;100520.16;;;21.29;69.50
80323;BME280;69636;52.372;13.610;2023-07-31T11:48:05;100514.84;;;21.22;69.48
80323;BME280;69636;52.372;13.610;2023-07-31T11:50:34;100518.00;;;21.01;68.18
80323;BME280;69636;52.372;13.610;2023-07-31T11:53:07;100516.72;;;20.85;69.68
80323;BME280;69636;52.372;13.610;2023-07-31T11:55:37;100519.28;;;20.80;69.85
80323;BME280;69636;52.372;13.610;2023-07-31T11:58:04;100519.59;;;20.72;70.56
80323;BME280;69636;52.372;13.610;2023-07-31T12:00:33;100515.47;;;20.70;69.52
80323;BME280;69636;52.372;13.610;2023-07-31T12:03:00;100516.22;;;20.40;71.15
80323;BME280;69636;52.372;13.610;2023-07-31T12:05:30;100526.59;;;20.37;72.13
80323;BME280;69636;52.372;13.610;2023-07-31T12:07:57;100521.47;;;20.28;72.74
80323;BME280;69636;52.372;13.610;2023-07-31T12:10:27;100517.13;;;20.27;73.71
80323;BME280;69636;52.372;13.610;2023-07-31T12:12:59;100515.63;;;20.13;74.27
80323;BME280;69636;52.372;13.610;2023-07-31T12:15:35;100514.63;;;20.08;72.23
80323;BME280;69636;52.372;13.610;2023-07-31T12:18:07;100511.09;;;20.07;72.74
80323;BME280;69636;52.372;13.610;2023-07-31T12:20:41;100504.66;;;20.08;73.74
80323;BME280;69636;52.372;13.610;2023-07-31T12:23:19;100507.72;;;20.37;71.95
80323;BME280;69636;52.372;13.610;2023-07-31T12:25:47;100505.81;;;20.44;72.61
80323;BME280;69636;52.372;13.610;2023-07-31T12:28:14;100505.66;;;20.57;70.88
80323;BME280;69636;52.372;13.610;2023-07-31T12:30:42;100498.53;;;20.44;71.06
80323;BME280;69636;52.372;13.610;2023-07-31T12:33:14;100498.31;;;20.46;71.96
80323;BME280;69636;52.372;13.610;2023-07-31T12:35:47;100501.84;;;20.46;72.64
80323;BME280;69636;52.372;13.610;2023-07-31T12:38:14;100499.16;;;20.21;72.61
80323;BME280;69636;52.372;13.610;2023-07-31T12:40:42;100489.78;;;20.06;72.92
80323;BME280;69636;52.372;13.610;2023-07-31T12:43:09;100492.16;;;19.95;73.77
80323;BME280;69636;52.372;13.610;2023-07-31T12:45:37;100498.81;;;19.93;73.97
80323;BME280;69636;52.372;13.610;2023-07-31T12:48:07;100498.00;;;19.92;73.43